createdAt,value
2022-11-15T00:03:24.032Z,8.75
2022-11-15T00:06:44.378Z,7.78
2022-11-15T00:10:05.153Z,11.57
2022-11-15T00:13:25.406Z,7.75
2022-11-15T00:16:45.685Z,6.85
2022-11-15T00:20:06.379Z,7.50
2022-11-15T00:23:26.398Z,8.23
2022-11-15T00:26:46.247Z,7.82
2022-11-15T00:30:06.733Z,7.55
2022-11-15T00:33:27.799Z,10.27
2022-11-15T00:36:47.703Z,8.60
2022-11-15T00:40:09.084Z,9.20
2022-11-15T00:43:29.702Z,8.77
2022-11-15T00:46:49.937Z,7.63
2022-11-15T00:50:12.960Z,7.10
2022-11-15T00:53:35.720Z,8.57
2022-11-15T00:56:55.532Z,7.60
2022-11-15T01:00:15.845Z,8.15
2022-11-15T01:03:36.739Z,9.07
2022-11-15T01:06:56.693Z,10.32
2022-11-15T01:10:16.702Z,8.00
2022-11-15T01:13:37.593Z,12.57
2022-11-15T01:16:57.662Z,8.25
2022-11-15T01:20:17.632Z,8.73
2022-11-15T01:23:38.447Z,7.85
2022-11-15T01:26:58.656Z,7.32
2022-11-15T01:30:18.549Z,8.10
2022-11-15T01:33:38.549Z,8.00
2022-11-15T01:36:58.374Z,7.68
2022-11-15T01:40:18.411Z,7.35
2022-11-15T01:43:40.439Z,7.90
2022-11-15T01:47:04.218Z,9.40
2022-11-15T01:50:29.144Z,10.73
2022-11-15T01:53:53.424Z,7.22
2022-11-15T01:57:14.200Z,11.50
2022-11-15T02:00:34.629Z,6.85
2022-11-15T02:04:08.719Z,8.63
2022-11-15T02:07:29.463Z,7.90
2022-11-15T02:10:49.299Z,8.18
2022-11-15T02:14:10.400Z,8.43
2022-11-15T02:17:59.138Z,9.48
2022-11-15T02:21:26.791Z,8.07
2022-11-15T02:24:57.911Z,7.50
2022-11-15T02:28:45.342Z,8.90
2022-11-15T02:32:29.310Z,8.52
2022-11-15T02:36:00.625Z,9.25
2022-11-15T02:39:32.630Z,6.28
2022-11-15T02:43:19.610Z,7.27
2022-11-15T02:47:10.697Z,7.32
2022-11-15T02:50:33.569Z,8.40
2022-11-15T02:53:53.723Z,10.85
2022-11-15T02:57:18.401Z,7.97
2022-11-15T03:00:59.648Z,9.20
2022-11-15T03:04:36.409Z,6.80
2022-11-15T03:08:23.192Z,8.57
2022-11-15T03:11:50.594Z,6.43
2022-11-15T03:15:32.447Z,9.73
2022-11-15T03:19:01.600Z,9.02
2022-11-15T03:22:26.624Z,6.93
2022-11-15T03:25:51.114Z,10.30
2022-11-15T03:29:18.374Z,8.73
2022-11-15T03:32:44.876Z,7.43
2022-11-15T03:36:05.415Z,8.63
2022-11-15T03:39:27.054Z,7.20
2022-11-15T03:43:00.841Z,7.47
2022-11-15T03:46:28.376Z,7.88
2022-11-15T03:49:56.551Z,8.45
2022-11-15T03:53:16.385Z,7.80
2022-11-15T03:56:36.289Z,6.40
2022-11-15T03:59:56.263Z,8.00
2022-11-15T04:03:16.134Z,8.23
2022-11-15T04:06:36.130Z,9.00
2022-11-15T04:10:05.118Z,8.50
2022-11-15T04:13:25.016Z,7.03
2022-11-15T04:16:44.857Z,6.72
2022-11-15T04:20:25.421Z,7.70
2022-11-15T04:24:04.234Z,7.28
2022-11-15T04:27:24.282Z,6.38
2022-11-15T04:30:44.156Z,5.00
2022-11-15T04:34:04.153Z,6.40
2022-11-15T04:37:24.139Z,5.90
2022-11-15T04:40:44.537Z,6.35
2022-11-15T04:44:04.537Z,5.90
2022-11-15T04:47:24.563Z,6.25
2022-11-15T04:50:44.381Z,7.18
2022-11-15T04:54:04.323Z,5.40
2022-11-15T04:57:24.494Z,5.60
2022-11-15T05:00:44.567Z,5.60
2022-11-15T05:04:19.885Z,6.93
2022-11-15T05:07:39.783Z,5.65
2022-11-15T05:10:59.672Z,6.10
2022-11-15T05:14:19.677Z,6.60
2022-11-15T05:17:39.620Z,9.02
2022-11-15T05:21:14.079Z,7.65
2022-11-15T05:24:34.220Z,8.80
2022-11-15T05:27:54.167Z,7.57
2022-11-15T05:31:16.676Z,5.97
2022-11-15T05:34:36.493Z,7.63
2022-11-15T05:37:56.266Z,6.15
2022-11-15T05:41:18.730Z,7.70
2022-11-15T05:44:42.151Z,7.28
2022-11-15T05:48:07.625Z,7.88
2022-11-15T05:51:29.767Z,6.13
2022-11-15T05:54:50.731Z,7.25
2022-11-15T05:58:10.591Z,5.93
2022-11-15T06:01:30.751Z,7.20
2022-11-15T06:04:50.555Z,6.68
2022-11-15T06:08:10.426Z,6.10
2022-11-15T06:11:30.397Z,8.63
2022-11-15T06:14:50.382Z,7.38
2022-11-15T06:18:10.454Z,7.70
2022-11-15T06:21:30.468Z,8.40
2022-11-15T06:24:50.240Z,9.48
2022-11-15T06:28:10.636Z,7.68
2022-11-15T06:31:30.996Z,7.38
2022-11-15T06:34:51.136Z,9.57
2022-11-15T06:38:12.052Z,9.85
2022-11-15T06:41:35.305Z,9.82
2022-11-15T06:44:55.735Z,7.93
2022-11-15T06:48:15.786Z,9.15
2022-11-15T06:51:35.477Z,8.38
2022-11-15T06:54:55.381Z,11.30
2022-11-15T06:58:15.364Z,11.82
2022-11-15T07:01:35.588Z,7.88
2022-11-15T07:04:55.447Z,11.85
2022-11-15T07:08:15.346Z,7.50
2022-11-15T07:11:35.413Z,10.00
2022-11-15T07:14:55.345Z,9.55
2022-11-15T07:18:15.308Z,8.30
2022-11-15T07:21:35.421Z,9.30
2022-11-15T07:24:55.354Z,13.35
2022-11-15T07:28:15.752Z,11.75
2022-11-15T07:31:36.408Z,15.32
2022-11-15T07:34:56.628Z,16.52
2022-11-15T07:38:21.609Z,16.95
2022-11-15T07:41:41.841Z,15.63
2022-11-15T07:45:01.626Z,15.75
2022-11-15T07:48:21.815Z,15.27
2022-11-15T07:51:41.980Z,17.45
2022-11-15T07:55:01.963Z,14.63
2022-11-15T07:58:21.883Z,13.60
2022-11-15T08:01:41.923Z,15.18
2022-11-15T08:05:02.068Z,14.00
2022-11-15T08:08:23.155Z,15.98
2022-11-15T08:11:42.983Z,18.92
2022-11-15T08:15:03.885Z,10.20
2022-11-15T08:18:23.820Z,12.98
2022-11-15T08:21:43.525Z,10.73
2022-11-15T08:25:03.582Z,10.60
2022-11-15T08:28:23.786Z,10.07
2022-11-15T08:31:43.661Z,12.27
2022-11-15T08:35:04.123Z,12.88
2022-11-15T08:38:25.239Z,10.10
2022-11-15T08:41:45.608Z,8.43
2022-11-15T08:45:05.994Z,10.50
2022-11-15T08:48:26.268Z,13.27
2022-11-15T08:51:46.481Z,8.40
2022-11-15T08:55:06.946Z,13.50
2022-11-15T08:58:26.635Z,13.57
2022-11-15T09:01:46.485Z,11.10
2022-11-15T09:05:07.179Z,11.00
2022-11-15T09:08:48.192Z,12.05
2022-11-15T09:12:08.897Z,13.20
2022-11-15T09:15:29.084Z,7.88
2022-11-15T09:18:48.884Z,12.93
2022-11-15T09:22:09.507Z,12.73
2022-11-15T09:25:30.053Z,12.48
2022-11-15T09:28:50.338Z,11.18
2022-11-15T09:32:10.546Z,10.05
2022-11-15T09:35:30.385Z,9.75
2022-11-15T09:38:50.475Z,20.40
2022-11-15T09:42:27.253Z,12.70
2022-11-15T09:46:04.339Z,11.02
2022-11-15T09:49:24.628Z,9.32
2022-11-15T09:52:45.138Z,9.95
2022-11-15T09:56:03.164Z,10.65
2022-11-15T09:59:07.593Z,10.50
2022-11-15T10:02:08.940Z,10.93
2022-11-15T10:05:15.260Z,15.07
2022-11-15T10:08:25.692Z,13.30
2022-11-15T10:11:39.506Z,10.80
2022-11-15T10:14:42.468Z,9.93
2022-11-15T10:18:17.828Z,9.50
2022-11-15T10:21:24.869Z,14.45
2022-11-15T10:24:31.756Z,12.23
2022-11-15T10:27:33.196Z,8.85
2022-11-15T10:30:38.144Z,6.57
2022-11-15T10:33:40.531Z,6.88
2022-11-15T10:36:56.602Z,6.78
2022-11-15T10:40:20.496Z,7.18
2022-11-15T10:43:22.651Z,6.30
2022-11-15T10:46:45.775Z,7.32
2022-11-15T10:53:27.612Z,7.32
2022-11-15T10:56:29.100Z,8.55
2022-11-15T10:59:38.820Z,7.15
2022-11-15T11:02:57.977Z,8.50
2022-11-15T11:06:11.974Z,8.43
2022-11-15T11:09:22.860Z,9.68
2022-11-15T11:12:33.050Z,9.82
2022-11-15T11:15:34.948Z,9.93
2022-11-15T11:19:07.323Z,9.27
2022-11-15T11:22:24.327Z,8.93
2022-11-15T11:25:52.433Z,9.13
2022-11-15T11:29:14.179Z,11.88
2022-11-15T11:33:09.804Z,12.67
2022-11-15T11:36:33.207Z,10.18
2022-11-15T11:39:55.678Z,8.27
2022-11-15T11:43:06.251Z,12.13
2022-11-15T11:46:32.381Z,10.85
2022-11-15T11:49:46.988Z,10.90
2022-11-15T11:53:19.048Z,8.98
2022-11-15T11:56:28.620Z,8.70
2022-11-15T11:59:44.590Z,7.10
2022-11-15T12:03:10.823Z,8.63
2022-11-15T12:07:03.009Z,6.70
2022-11-15T12:10:20.990Z,6.60
2022-11-15T12:13:27.166Z,7.30
2022-11-15T12:16:31.332Z,8.82
2022-11-15T12:19:33.036Z,6.30
2022-11-15T12:22:48.225Z,6.78
2022-11-15T12:26:05.410Z,6.68
2022-11-15T12:29:32.627Z,6.72
2022-11-15T12:32:38.514Z,6.22
2022-11-15T12:35:43.496Z,5.30
2022-11-15T12:38:55.644Z,6.20
2022-11-15T12:41:57.039Z,6.63
2022-11-15T12:45:00.415Z,7.37
2022-11-15T12:48:16.695Z,7.40
2022-11-15T12:51:20.436Z,6.65
2022-11-15T12:54:24.872Z,7.28
2022-11-15T12:57:26.219Z,7.28
2022-11-15T13:00:30.594Z,6.80
2022-11-15T13:03:32.833Z,8.02
2022-11-15T13:09:38.984Z,5.85
2022-11-15T13:12:46.468Z,8.50
2022-11-15T13:16:00.240Z,6.75
2022-11-15T13:19:04.058Z,8.00
2022-11-15T13:22:28.280Z,6.55
2022-11-15T13:25:48.808Z,7.85
2022-11-15T13:28:55.482Z,7.13
2022-11-15T13:31:57.088Z,8.35
2022-11-15T13:35:01.665Z,8.18
2022-11-15T13:38:05.952Z,5.47
2022-11-15T13:41:23.056Z,7.18
2022-11-15T13:44:30.457Z,11.70
2022-11-15T13:47:32.860Z,10.38
2022-11-15T13:53:41.691Z,9.93
2022-11-15T13:57:15.266Z,8.23
2022-11-15T14:00:36.539Z,8.95
2022-11-15T14:03:50.258Z,6.53
2022-11-15T14:06:58.153Z,5.32
2022-11-15T14:10:18.535Z,5.97
2022-11-15T14:13:31.220Z,5.55
2022-11-15T14:16:39.922Z,7.57
2022-11-15T14:19:41.382Z,6.88
2022-11-15T14:22:52.964Z,7.60
2022-11-15T14:26:00.160Z,6.77
2022-11-15T14:29:23.493Z,5.68
2022-11-15T14:32:28.637Z,9.10
2022-11-15T14:35:30.091Z,9.82
2022-11-15T14:38:31.910Z,7.35
2022-11-15T14:41:38.794Z,6.25
2022-11-15T14:44:43.501Z,8.23
2022-11-15T14:47:48.207Z,7.15
2022-11-15T14:50:49.695Z,7.68
2022-11-15T14:53:51.997Z,9.15
2022-11-15T14:59:54.946Z,7.38
2022-11-15T15:02:56.994Z,7.50
2022-11-15T15:05:58.419Z,8.85
2022-11-15T15:08:59.885Z,7.63
2022-11-15T15:12:06.041Z,8.40
2022-11-15T15:15:14.789Z,8.38
2022-11-15T15:18:16.950Z,9.70
2022-11-15T15:21:22.766Z,11.68
2022-11-15T15:24:24.165Z,9.85
2022-11-15T15:27:25.559Z,9.47
2022-11-15T15:30:29.060Z,7.13
2022-11-15T15:33:30.440Z,10.57
2022-11-15T15:36:31.924Z,11.03
2022-11-15T15:39:33.742Z,13.63
2022-11-15T15:42:35.391Z,12.55
2022-11-15T15:45:40.091Z,11.65
2022-11-15T15:48:41.737Z,9.77
2022-11-15T15:51:43.159Z,11.45
2022-11-15T15:54:44.661Z,14.80
2022-11-15T15:57:46.955Z,21.67
2022-11-15T16:03:49.733Z,14.68
2022-11-15T16:06:53.803Z,11.57
2022-11-15T16:10:01.299Z,12.70
2022-11-15T16:13:03.169Z,14.52
2022-11-15T16:16:09.823Z,12.45
2022-11-15T16:19:12.579Z,11.45
2022-11-15T16:22:14.001Z,11.73
2022-11-15T16:25:15.584Z,11.87
2022-11-15T16:28:27.977Z,12.57
2022-11-15T16:34:34.882Z,12.38
2022-11-15T16:37:40.720Z,14.43
2022-11-15T16:40:42.261Z,11.18
2022-11-15T16:43:43.626Z,12.00
2022-11-15T16:46:51.619Z,13.55
2022-11-15T16:49:53.020Z,11.55
2022-11-15T16:52:56.351Z,12.43
2022-11-15T16:55:57.870Z,14.30
2022-11-15T16:59:01.010Z,14.57
2022-11-15T17:02:02.513Z,15.10
2022-11-15T17:05:09.596Z,11.90
2022-11-15T17:08:12.578Z,13.77
2022-11-15T17:11:16.656Z,20.92
2022-11-15T17:14:18.852Z,20.50
2022-11-15T17:17:21.566Z,19.02
2022-11-15T17:20:25.032Z,18.25
2022-11-15T17:23:26.422Z,14.85
2022-11-15T17:26:32.170Z,20.40
2022-11-15T17:29:35.575Z,16.33
2022-11-15T17:32:37.446Z,18.30
2022-11-15T17:35:38.985Z,17.75
2022-11-15T17:38:43.487Z,21.80
2022-11-15T17:41:45.089Z,14.73
2022-11-15T17:44:46.581Z,17.13
2022-11-15T17:47:48.119Z,17.63
2022-11-15T17:51:03.670Z,16.40
2022-11-15T17:54:05.302Z,14.02
2022-11-15T17:57:06.746Z,13.80
2022-11-15T18:00:09.289Z,14.63
2022-11-15T18:03:10.684Z,14.43
2022-11-15T18:06:12.503Z,14.50
2022-11-15T18:09:13.974Z,21.95
2022-11-15T18:12:15.462Z,17.77
2022-11-15T18:15:18.686Z,24.27
2022-11-15T18:18:20.179Z,21.80
2022-11-15T18:21:23.989Z,20.52
2022-11-15T18:24:30.707Z,23.85
2022-11-15T18:27:32.217Z,27.20
2022-11-15T18:30:33.618Z,18.42
2022-11-15T18:33:35.531Z,18.27
2022-11-15T18:36:38.862Z,22.52
2022-11-15T18:39:40.412Z,31.13
2022-11-15T18:42:41.798Z,17.97
2022-11-15T18:45:43.189Z,15.48
2022-11-15T18:48:45.637Z,19.80
2022-11-15T18:51:47.645Z,26.70
2022-11-15T18:54:49.107Z,24.88
2022-11-15T18:57:50.492Z,23.93
2022-11-15T19:00:51.958Z,25.37
2022-11-15T19:03:55.905Z,32.13
2022-11-15T19:06:57.446Z,50.05
2022-11-15T19:09:58.882Z,46.50
2022-11-15T19:13:00.248Z,46.63
2022-11-15T19:16:03.504Z,24.57
2022-11-15T19:19:10.624Z,21.08
2022-11-15T19:22:12.130Z,21.35
2022-11-15T19:25:13.532Z,25.33
2022-11-15T19:28:14.928Z,40.70
2022-11-15T19:31:17.714Z,36.33
2022-11-15T19:34:19.167Z,31.65
2022-11-15T19:37:20.723Z,25.57
2022-11-15T19:40:22.103Z,21.67
2022-11-15T19:43:23.488Z,26.77
2022-11-15T19:46:26.753Z,20.83
2022-11-15T19:49:28.215Z,22.73
2022-11-15T19:52:29.674Z,17.67
2022-11-15T19:55:31.238Z,18.20
2022-11-15T19:58:34.552Z,15.32
2022-11-15T20:01:38.421Z,13.52
2022-11-15T20:04:40.088Z,15.95
2022-11-15T20:07:41.597Z,14.38
2022-11-15T20:10:43.967Z,15.90
2022-11-15T20:16:51.448Z,15.23
2022-11-15T20:19:55.537Z,13.73
2022-11-15T20:23:02.274Z,14.25
2022-11-15T20:26:05.315Z,14.85
2022-11-15T20:29:08.391Z,14.95
2022-11-15T20:32:09.833Z,14.70
2022-11-15T20:35:11.380Z,14.80
2022-11-15T20:38:12.790Z,16.83
2022-11-15T20:41:14.898Z,14.13
2022-11-15T20:44:16.532Z,19.27
2022-11-15T20:47:17.995Z,17.73
2022-11-15T20:50:41.101Z,19.95
2022-11-15T20:53:41.978Z,18.52
2022-11-15T20:56:43.373Z,18.60
2022-11-15T20:59:44.871Z,15.40
2022-11-15T21:02:46.582Z,16.60
2022-11-15T21:05:48.003Z,17.02
2022-11-15T21:09:09.557Z,16.40
2022-11-15T21:12:13.363Z,17.80
2022-11-15T21:15:14.764Z,17.08
2022-11-15T21:18:16.310Z,18.70
2022-11-15T21:21:17.854Z,18.60
2022-11-15T21:24:20.193Z,13.27
2022-11-15T21:30:23.176Z,12.73
2022-11-15T21:33:27.314Z,13.05
2022-11-15T21:36:28.782Z,12.10
2022-11-15T21:39:30.289Z,10.30
2022-11-15T21:42:31.737Z,10.27
2022-11-15T21:45:33.249Z,10.40
2022-11-15T21:48:36.093Z,11.45
2022-11-15T21:51:37.899Z,10.20
2022-11-15T21:54:40.953Z,12.77
2022-11-15T21:57:42.444Z,9.77
2022-11-15T22:01:03.429Z,11.70
2022-11-15T22:04:07.907Z,8.80
2022-11-15T22:07:09.525Z,9.40
2022-11-15T22:10:11.174Z,9.35
2022-11-15T22:13:13.359Z,10.35
2022-11-15T22:16:14.866Z,10.07
2022-11-15T22:19:16.364Z,9.73
2022-11-15T22:22:17.797Z,11.23
2022-11-15T22:25:19.245Z,9.53
2022-11-15T22:28:21.570Z,12.53
2022-11-15T22:34:24.376Z,8.50
2022-11-15T22:37:25.809Z,10.93
2022-11-15T22:40:27.222Z,12.00
2022-11-15T22:43:28.995Z,8.73
2022-11-15T22:46:33.850Z,10.57
2022-11-15T22:49:35.422Z,10.90
2022-11-15T22:52:36.862Z,11.35
2022-11-15T22:55:41.413Z,12.23
2022-11-15T22:58:42.888Z,11.40
2022-11-15T23:01:44.499Z,11.10
2022-11-15T23:04:46.124Z,10.73
2022-11-15T23:07:47.605Z,9.73
2022-11-15T23:11:07.937Z,8.40
2022-11-15T23:14:10.453Z,10.70
2022-11-15T23:17:11.932Z,9.75
2022-11-15T23:20:41.392Z,8.87
2022-11-15T23:23:35.511Z,9.73
2022-11-15T23:26:37.108Z,9.73
2022-11-15T23:29:57.366Z,8.87
2022-11-15T23:33:17.528Z,9.13
2022-11-15T23:36:18.987Z,8.73
2022-11-15T23:39:20.690Z,7.27
2022-11-15T23:42:22.083Z,8.38
2022-11-15T23:45:23.557Z,9.68
2022-11-15T23:48:24.954Z,11.63
2022-11-15T23:51:26.392Z,10.47
2022-11-15T23:54:27.873Z,11.30
2022-11-15T23:57:29.318Z,9.87
